Time;durP1;ratioP1;P1;durP2;ratioP2;P2;SDS_P1;SDS_P2;PMS_P1;PMS_P2;Temp;Humidity;BMP_temperature;BMP_pressure;BME280_temperature;BME280_humidity;BME280_pressure;Samples;Min_cycle;Max_cycle;Signal;HPM_P1;HPM_P2
2023/01/04 00:01:08;;;;;;;7.50;2.38;;;9.10;91.60;;;;;;5092891;27;20415;-89
2023/01/04 00:03:34;;;;;;;8.15;3.33;;;9.10;91.80;;;;;;5110905;27;20471;-88
2023/01/04 00:06:03;;;;;;;8.20;2.60;;;9.20;92.20;;;;;;5093172;27;20437;-89
2023/01/04 00:08:29;;;;;;;8.02;3.20;;;9.20;92.40;;;;;;5094209;27;20406;-88
2023/01/04 00:11:06;;;;;;;9.82;3.75;;;9.00;92.80;;;;;;5093989;27;20862;-89
2023/01/04 00:13:32;;;;;;;11.25;4.30;;;9.10;93.40;;;;;;5093742;27;20814;-88
2023/01/04 00:16:03;;;;;;;9.70;4.28;;;8.90;93.80;;;;;;5094897;27;20800;-90
2023/01/04 00:18:30;;;;;;;10.50;5.05;;;8.70;94.10;;;;;;5093618;27;20414;-89
2023/01/04 00:21:09;;;;;;;12.90;5.80;;;8.60;94.40;;;;;;5111219;27;20391;-90
2023/01/04 00:23:35;;;;;;;8.40;4.63;;;8.60;94.80;;;;;;5093417;27;20390;-90
2023/01/04 00:26:01;;;;;;;9.50;5.55;;;8.60;94.90;;;;;;5093999;27;20422;-88
2023/01/04 00:28:26;;;;;;;9.45;4.95;;;8.80;95.00;;;;;;5093891;27;20414;-89
2023/01/04 00:30:52;;;;;;;9.40;5.03;;;8.60;95.00;;;;;;5093259;27;20411;-88
2023/01/04 00:33:17;;;;;;;10.52;5.30;;;8.60;95.00;;;;;;5093942;27;21320;-88
2023/01/04 00:35:43;;;;;;;8.80;4.60;;;8.60;95.10;;;;;;5110111;27;20395;-89
2023/01/04 00:38:09;;;;;;;12.30;5.93;;;8.50;95.10;;;;;;5111232;27;20478;-89
2023/01/04 00:40:34;;;;;;;9.43;4.60;;;8.60;95.20;;;;;;5092976;27;20501;-90
2023/01/04 00:43:00;;;;;;;9.80;4.72;;;8.50;95.10;;;;;;5094119;27;20425;-89
2023/01/04 00:45:26;;;;;;;7.53;4.00;;;8.60;95.10;;;;;;5110282;27;20432;-89
2023/01/04 00:47:51;;;;;;;8.98;4.75;;;8.60;95.10;;;;;;5093719;27;20395;-90
2023/01/04 00:50:17;;;;;;;8.77;4.37;;;8.60;95.10;;;;;;5094189;27;20420;-90
2023/01/04 00:52:42;;;;;;;9.70;4.88;;;8.60;95.20;;;;;;5092729;27;20399;-89
2023/01/04 00:55:08;;;;;;;8.17;4.17;;;8.80;95.20;;;;;;5093542;27;20410;-88
2023/01/04 00:57:34;;;;;;;8.60;4.17;;;8.60;95.20;;;;;;5092827;27;20523;-90
2023/01/04 01:00:00;;;;;;;8.03;3.83;;;8.60;95.20;;;;;;5093935;27;20466;-89
2023/01/04 01:02:25;;;;;;;11.35;5.50;;;8.80;95.30;;;;;;5093244;27;20402;-90
2023/01/04 01:04:51;;;;;;;9.97;4.53;;;8.60;95.40;;;;;;5093546;27;20802;-90
2023/01/04 01:07:16;;;;;;;8.03;4.33;;;8.60;95.40;;;;;;5092949;27;20391;-87
2023/01/04 01:09:42;;;;;;;8.55;4.63;;;8.60;95.40;;;;;;5093461;27;20426;-90
2023/01/04 01:12:07;;;;;;;10.77;4.97;;;8.60;95.50;;;;;;5093184;27;20398;-89
2023/01/04 01:14:33;;;;;;;6.93;4.73;;;8.60;95.50;;;;;;5092311;27;20402;-92
2023/01/04 01:16:58;;;;;;;7.13;4.35;;;8.60;95.60;;;;;;5110210;27;20407;-89
2023/01/04 01:19:26;;;;;;;6.10;3.50;;;8.60;95.60;;;;;;5092363;27;20459;-89
2023/01/04 01:21:52;;;;;;;11.18;5.20;;;8.60;95.60;;;;;;5093400;27;20449;-89
2023/01/04 01:24:19;;;;;;;7.88;4.60;;;8.60;95.70;;;;;;5109698;27;20402;-89
2023/01/04 01:26:45;;;;;;;7.38;4.25;;;8.60;95.80;;;;;;5092788;27;20433;-90
2023/01/04 01:29:10;;;;;;;10.07;4.88;;;8.60;95.80;;;;;;5093218;27;20722;-89
2023/01/04 01:31:36;;;;;;;8.40;4.72;;;8.60;95.80;;;;;;5092651;27;20402;-92
2023/01/04 01:34:02;;;;;;;7.33;3.50;;;8.70;95.90;;;;;;5093111;27;20471;-89
2023/01/04 01:36:28;;;;;;;9.27;4.57;;;8.60;95.90;;;;;;5092222;27;20954;-90
2023/01/04 01:38:54;;;;;;;7.75;4.50;;;8.60;96.30;;;;;;5093076;27;20451;-90
2023/01/04 01:41:28;;;;;;;7.65;4.75;;;8.70;96.10;;;;;;5092545;27;20803;-90
2023/01/04 01:43:58;;;;;;;9.00;4.32;;;8.70;96.20;;;;;;5110057;27;20399;-88
2023/01/04 01:46:37;;;;;;;9.00;5.17;;;8.60;96.20;;;;;;5092758;27;20443;-88
2023/01/04 01:49:24;;;;;;;9.02;4.75;;;8.60;96.20;;;;;;5108897;27;20467;-90
2023/01/04 01:51:52;;;;;;;7.75;3.85;;;8.60;96.30;;;;;;5093381;27;20402;-90
2023/01/04 01:54:27;;;;;;;7.13;4.10;;;8.60;96.30;;;;;;5092010;27;20458;-88
2023/01/04 01:56:56;;;;;;;8.32;4.07;;;8.70;96.40;;;;;;5093052;27;20409;-89
2023/01/04 01:59:23;;;;;;;5.73;3.63;;;8.70;96.40;;;;;;5109219;27;20418;-89
2023/01/04 02:01:49;;;;;;;6.90;4.00;;;8.70;96.50;;;;;;5092103;28;20799;-90
2023/01/04 02:04:15;;;;;;;4.47;2.90;;;8.70;96.50;;;;;;5109811;27;20391;-88
2023/01/04 02:06:47;;;;;;;6.88;3.85;;;8.70;96.50;;;;;;5091169;27;20425;-90
2023/01/04 02:09:13;;;;;;;4.88;3.25;;;8.70;96.50;;;;;;5092545;28;20507;-91
2023/01/04 02:11:39;;;;;;;5.05;3.50;;;8.70;96.60;;;;;;5092271;28;20478;-89
2023/01/04 02:17:12;;;;;;;4.90;3.00;;;8.70;96.70;;;;;;5109296;28;20460;-90
2023/01/04 02:20:05;;;;;;;5.03;3.20;;;8.70;96.70;;;;;;5092245;28;20399;-89
2023/01/04 02:23:08;;;;;;;5.32;3.20;;;8.70;96.80;;;;;;5092705;28;20405;-89
2023/01/04 02:25:52;;;;;;;3.88;2.67;;;8.70;96.80;;;;;;5094006;27;20449;-90
2023/01/04 02:28:36;;;;;;;4.60;2.53;;;8.70;96.80;;;;;;5095583;27;20457;-89
2023/01/04 02:31:17;;;;;;;2.88;2.03;;;8.70;96.80;;;;;;5113763;27;20486;-89
2023/01/04 02:34:02;;;;;;;3.83;2.73;;;8.70;96.90;;;;;;5096676;27;20992;-89
2023/01/04 02:36:38;;;;;;;5.03;3.38;;;8.80;96.90;;;;;;5095558;27;20438;-90
2023/01/04 02:39:19;;;;;;;2.67;1.92;;;8.80;96.90;;;;;;5096431;27;20418;-89
2023/01/04 02:42:04;;;;;;;4.97;3.10;;;8.70;96.90;;;;;;5095654;27;20406;-90
2023/01/04 02:44:51;;;;;;;5.00;2.97;;;8.80;97.00;;;;;;5096273;27;20439;-90
2023/01/04 02:50:39;;;;;;;3.97;2.17;;;8.80;97.10;;;;;;5112586;27;20403;-92
2023/01/04 02:53:13;;;;;;;5.10;3.50;;;8.80;97.20;;;;;;5095890;27;20491;-90
2023/01/04 02:56:15;;;;;;;3.92;2.65;;;9.00;97.30;;;;;;5095798;27;20882;-90
2023/01/04 02:58:53;;;;;;;3.45;2.70;;;8.80;97.40;;;;;;5112237;27;20491;-91
2023/01/04 03:07:58;;;;;;;2.58;2.10;;;8.90;97.50;;;;;;5111790;27;21014;-89
2023/01/04 03:10:45;;;;;;;3.47;2.70;;;8.90;97.60;;;;;;5095617;27;20403;-88
2023/01/04 03:13:23;;;;;;;2.70;1.98;;;9.00;97.60;;;;;;5095305;27;20482;-90
2023/01/04 03:16:05;;;;;;;3.47;2.00;;;9.00;97.70;;;;;;5111933;27;20390;-92
2023/01/04 03:18:36;;;;;;;3.15;2.53;;;9.00;97.70;;;;;;5095756;27;20399;-90
2023/01/04 03:21:03;;;;;;;4.38;2.70;;;9.00;97.70;;;;;;5095145;27;20444;-90
2023/01/04 03:35:22;;;;;;;5.53;4.65;;;9.30;97.90;;;;;;5112627;27;20407;-89
2023/01/04 03:50:15;;;;;;;8.80;7.55;;;9.60;98.10;;;;;;5029590;28;20467;-89
2023/01/04 03:52:45;;;;;;;10.13;8.83;;;9.70;98.20;;;;;;5068876;27;20406;-90
2023/01/04 03:55:12;;;;;;;9.97;8.30;;;9.70;98.20;;;;;;5111129;27;20904;-90
2023/01/04 03:57:39;;;;;;;12.07;9.80;;;9.80;98.20;;;;;;5094861;27;20403;-89
2023/01/04 04:00:09;;;;;;;11.00;9.27;;;9.90;98.20;;;;;;5094871;27;20888;-90
2023/01/04 04:02:35;;;;;;;12.48;10.40;;;9.90;98.10;;;;;;5094998;27;20435;-91
2023/01/04 04:10:29;;;;;;;13.70;11.32;;;10.00;98.10;;;;;;5111752;27;20406;-89
2023/01/04 04:12:54;;;;;;;12.73;10.80;;;10.00;98.10;;;;;;5093623;27;20415;-87
2023/01/04 04:15:20;;;;;;;16.80;12.43;;;10.00;98.10;;;;;;5094388;27;20738;-87
2023/01/04 04:17:46;;;;;;;14.83;12.20;;;10.00;98.10;;;;;;5094325;27;20413;-91
2023/01/04 04:20:12;;;;;;;12.80;10.50;;;10.10;98.00;;;;;;5111162;27;20391;-89
2023/01/04 04:22:38;;;;;;;13.63;11.07;;;10.10;98.00;;;;;;5094651;27;20805;-89
2023/01/04 04:25:04;;;;;;;14.48;11.05;;;10.10;98.00;;;;;;5093165;27;20403;-91
2023/01/04 04:27:29;;;;;;;13.95;10.65;;;10.10;97.90;;;;;;5094892;27;20405;-89
2023/01/04 04:29:55;;;;;;;14.07;10.52;;;10.10;98.00;;;;;;5093827;27;20407;-91
2023/01/04 04:32:21;;;;;;;10.80;9.17;;;10.20;98.00;;;;;;5094248;27;20946;-92
2023/01/04 04:34:47;;;;;;;12.50;9.50;;;10.20;98.00;;;;;;5094276;27;20758;-90
2023/01/04 04:37:12;;;;;;;10.97;9.07;;;10.20;98.10;;;;;;5094320;27;20402;-91
2023/01/04 04:39:38;;;;;;;13.68;9.88;;;10.30;98.00;;;;;;5094193;27;20395;-91
2023/01/04 04:42:03;;;;;;;16.77;10.80;;;10.30;97.90;;;;;;5093397;27;20406;-92
2023/01/04 04:44:29;;;;;;;15.43;11.50;;;10.40;97.90;;;;;;5093774;27;20476;-91
2023/01/04 04:46:55;;;;;;;14.30;10.40;;;10.30;97.90;;;;;;5092752;27;20451;-91
2023/01/04 04:49:20;;;;;;;14.47;11.00;;;10.30;97.90;;;;;;5093951;27;20393;-90
2023/01/04 04:51:49;;;;;;;13.82;9.82;;;10.30;97.80;;;;;;5093745;27;20398;-89
2023/01/04 04:54:18;;;;;;;13.50;10.05;;;10.30;97.80;;;;;;5094314;27;20456;-91
2023/01/04 04:56:44;;;;;;;16.63;12.07;;;10.30;97.80;;;;;;5093974;27;20391;-91
2023/01/04 04:59:10;;;;;;;13.73;10.57;;;10.30;97.80;;;;;;5093485;27;20471;-93
2023/01/04 05:01:36;;;;;;;15.20;12.48;;;10.30;97.80;;;;;;5093823;27;20901;-89
2023/01/04 05:04:02;;;;;;;17.43;12.97;;;10.30;97.90;;;;;;5109726;27;20402;-91
2023/01/04 05:06:28;;;;;;;13.77;11.10;;;10.30;98.00;;;;;;5110730;27;20465;-91
2023/01/04 05:08:53;;;;;;;13.70;10.17;;;10.30;97.90;;;;;;5093140;27;20402;-93
2023/01/04 05:14:03;;;;;;;14.67;10.93;;;10.60;97.90;;;;;;5110456;27;20426;-90
2023/01/04 05:16:29;;;;;;;15.57;10.50;;;10.40;97.90;;;;;;5093264;27;20918;-92
2023/01/04 05:18:55;;;;;;;11.77;9.55;;;10.40;97.80;;;;;;5110361;27;20394;-89
2023/01/04 05:21:20;;;;;;;14.52;10.18;;;10.40;97.80;;;;;;5109640;27;20418;-92
2023/01/04 05:23:46;;;;;;;13.17;9.90;;;10.40;97.80;;;;;;5110456;27;20510;-89
2023/01/04 05:26:12;;;;;;;13.13;9.40;;;10.40;97.90;;;;;;5093016;27;20572;-89
2023/01/04 05:28:37;;;;;;;12.95;9.88;;;10.40;97.90;;;;;;5093739;27;20429;-91
2023/01/04 05:31:03;;;;;;;13.93;10.60;;;10.50;97.90;;;;;;5092713;27;20407;-92
2023/01/04 05:33:31;;;;;;;13.60;9.07;;;10.50;98.00;;;;;;5093733;27;20468;-90
2023/01/04 05:35:59;;;;;;;14.95;10.13;;;10.50;98.00;;;;;;5093214;27;20405;-89
2023/01/04 05:38:25;;;;;;;12.63;8.70;;;10.60;98.10;;;;;;5092675;27;20403;-92
2023/01/04 05:40:52;;;;;;;8.60;6.55;;;10.50;98.10;;;;;;5093519;27;20418;-92
2023/01/04 05:43:20;;;;;;;8.57;6.22;;;10.50;98.10;;;;;;5092297;27;20406;-91
2023/01/04 05:45:52;;;;;;;7.35;4.97;;;10.80;98.10;;;;;;5113479;27;20421;-90
2023/01/04 05:48:18;;;;;;;6.90;5.43;;;10.50;98.10;;;;;;5129854;27;20415;-91
2023/01/04 05:50:44;;;;;;;10.40;7.32;;;10.60;98.00;;;;;;5130622;27;21021;-92
2023/01/04 05:53:11;;;;;;;9.77;7.13;;;10.60;98.00;;;;;;5113448;27;20404;-90
2023/01/04 05:55:37;;;;;;;7.05;5.22;;;10.70;98.00;;;;;;5129837;27;20883;-90
2023/01/04 05:58:03;;;;;;;10.13;6.65;;;10.60;98.00;;;;;;5113681;27;20393;-91
2023/01/04 06:00:29;;;;;;;15.05;7.28;;;10.70;98.00;;;;;;5111589;27;20396;-91
2023/01/04 06:02:55;;;;;;;9.60;6.90;;;10.60;97.90;;;;;;5113970;27;20422;-91
2023/01/04 06:05:23;;;;;;;12.10;7.30;;;10.70;98.00;;;;;;5112796;27;20400;-92
2023/01/04 06:07:49;;;;;;;14.57;8.40;;;10.80;98.00;;;;;;5113524;27;20464;-89
2023/01/04 06:10:15;;;;;;;16.33;8.48;;;10.60;98.00;;;;;;5113060;27;20389;-89
2023/01/04 06:12:41;;;;;;;9.82;6.65;;;10.60;98.00;;;;;;5130209;27;20775;-92
2023/01/04 06:15:08;;;;;;;14.55;8.18;;;10.60;98.00;;;;;;5113236;27;20393;-90
2023/01/04 06:17:34;;;;;;;13.25;7.55;;;10.60;98.00;;;;;;5112416;27;20393;-92
2023/01/04 06:20:00;;;;;;;13.07;7.22;;;10.50;97.90;;;;;;5113044;27;20401;-90
2023/01/04 06:22:27;;;;;;;13.65;7.22;;;10.80;99.10;;;;;;5129300;27;20400;-90
2023/01/04 06:24:53;;;;;;;20.25;8.73;;;10.50;99.00;;;;;;5129780;27;20771;-92
2023/01/04 06:27:19;;;;;;;21.20;8.50;;;10.40;99.00;;;;;;5112465;27;20429;-90
2023/01/04 06:29:45;;;;;;;14.27;6.38;;;10.50;99.20;;;;;;5113284;27;20399;-90
2023/01/04 06:32:10;;;;;;;14.05;5.55;;;10.50;99.90;;;;;;5112285;27;20437;-91
2023/01/04 06:34:36;;;;;;;14.27;5.60;;;10.50;99.70;;;;;;5110921;27;20483;-91
2023/01/04 06:37:02;;;;;;;10.90;4.77;;;10.50;99.20;;;;;;5112547;27;20497;-91
2023/01/04 06:39:28;;;;;;;12.45;4.93;;;10.30;98.70;;;;;;5111189;27;20752;-91
2023/01/04 06:41:54;;;;;;;13.65;5.10;;;10.70;98.80;;;;;;5112571;27;20409;-90
2023/01/04 06:44:20;;;;;;;13.93;4.18;;;10.60;98.80;;;;;;5110850;27;20466;-91
2023/01/04 06:46:45;;;;;;;15.23;5.07;;;10.50;98.80;;;;;;5112111;27;20417;-92
2023/01/04 06:49:11;;;;;;;10.63;3.25;;;10.80;98.90;;;;;;5113077;27;20393;-93
2023/01/04 06:51:37;;;;;;;12.50;4.00;;;10.70;98.80;;;;;;5112152;27;20887;-92
2023/01/04 06:54:03;;;;;;;12.53;3.53;;;10.80;98.90;;;;;;5129837;27;20821;-92
2023/01/04 06:56:29;;;;;;;14.75;4.15;;;10.80;98.80;;;;;;5106318;28;21235;-92
2023/01/04 06:58:55;;;;;;;13.10;3.38;;;10.80;98.70;;;;;;5092399;28;20402;-92
2023/01/04 07:01:21;;;;;;;14.32;4.72;;;10.90;98.70;;;;;;5091213;28;20402;-92
2023/01/04 07:03:46;;;;;;;13.43;3.20;;;11.00;98.60;;;;;;5109738;28;20483;-89
2023/01/04 07:06:12;;;;;;;14.23;3.97;;;10.90;98.60;;;;;;5091192;28;20511;-89
2023/01/04 07:08:38;;;;;;;13.32;3.17;;;10.90;98.50;;;;;;5108967;28;20395;-91
2023/01/04 07:11:04;;;;;;;12.50;3.72;;;11.00;98.50;;;;;;5092122;27;20413;-91
2023/01/04 07:13:29;;;;;;;12.77;3.73;;;10.90;98.40;;;;;;5112605;27;20406;-93
2023/01/04 07:15:55;;;;;;;15.63;4.03;;;10.90;98.40;;;;;;5096375;27;20923;-93
2023/01/04 07:18:21;;;;;;;14.00;4.47;;;10.90;98.40;;;;;;5094844;27;20458;-94
2023/01/04 07:20:47;;;;;;;15.77;4.65;;;10.90;98.30;;;;;;5096187;27;20466;-92
2023/01/04 07:23:13;;;;;;;17.30;4.82;;;11.10;98.40;;;;;;5095102;27;20441;-92
2023/01/04 07:25:38;;;;;;;17.90;5.70;;;11.00;98.60;;;;;;5095904;27;20430;-92
2023/01/04 07:28:04;;;;;;;18.90;5.13;;;11.10;98.40;;;;;;5094825;27;20407;-92
2023/01/04 07:30:30;;;;;;;22.25;5.35;;;11.00;98.30;;;;;;5096203;27;20399;-92
2023/01/04 07:32:56;;;;;;;18.27;4.75;;;11.10;98.30;;;;;;5095293;27;20407;-93
2023/01/04 07:35:23;;;;;;;21.67;5.40;;;11.10;98.30;;;;;;5094771;27;20399;-91
2023/01/04 07:37:49;;;;;;;20.98;5.80;;;11.10;98.40;;;;;;5095900;27;20486;-91
2023/01/04 07:40:14;;;;;;;24.23;5.78;;;11.10;98.30;;;;;;5094623;27;20402;-90
2023/01/04 07:42:40;;;;;;;23.25;6.20;;;10.90;98.30;;;;;;5096196;27;20430;-92
2023/01/04 07:45:07;;;;;;;26.70;6.83;;;11.00;98.30;;;;;;5102828;27;20397;-90
2023/01/04 07:47:33;;;;;;;27.92;7.00;;;11.00;98.30;;;;;;5116226;27;20442;-94
2023/01/04 07:49:59;;;;;;;21.95;5.75;;;11.00;98.30;;;;;;5115434;27;20409;-91
2023/01/04 07:52:26;;;;;;;21.67;6.10;;;10.90;98.30;;;;;;5132702;27;20458;-93
2023/01/04 07:54:52;;;;;;;28.40;7.22;;;11.00;98.40;;;;;;5132626;27;20408;-93
2023/01/04 07:57:18;;;;;;;23.83;6.63;;;11.00;98.40;;;;;;5115063;27;20483;-90
2023/01/04 07:59:43;;;;;;;17.87;4.13;;;11.00;98.40;;;;;;5132916;27;20405;-91
2023/01/04 08:02:13;;;;;;;20.70;6.03;;;11.10;98.40;;;;;;5114556;27;20402;-92
2023/01/04 08:04:39;;;;;;;22.27;6.20;;;10.90;98.40;;;;;;5115777;27;20400;-91
2023/01/04 08:07:05;;;;;;;20.73;6.50;;;11.30;98.50;;;;;;5114608;27;20405;-92
2023/01/04 08:09:31;;;;;;;17.65;5.70;;;11.00;98.40;;;;;;5115490;27;20405;-92
2023/01/04 08:11:57;;;;;;;19.10;5.70;;;11.20;98.50;;;;;;5114845;27;20457;-91
2023/01/04 08:14:22;;;;;;;16.20;4.27;;;10.90;98.40;;;;;;5114504;27;20418;-91
2023/01/04 08:16:48;;;;;;;18.63;5.93;;;11.00;98.40;;;;;;5115198;27;20484;-89
2023/01/04 08:19:19;;;;;;;13.43;4.53;;;11.00;98.50;;;;;;5114659;27;20389;-92
2023/01/04 08:21:46;;;;;;;12.95;3.05;;;11.00;98.50;;;;;;5115553;27;20759;-92
2023/01/04 08:24:14;;;;;;;14.27;4.40;;;10.90;98.40;;;;;;5113203;27;20437;-91
2023/01/04 08:26:40;;;;;;;10.60;3.75;;;11.30;98.60;;;;;;5132338;27;20421;-92
2023/01/04 08:29:05;;;;;;;15.15;4.85;;;11.10;98.50;;;;;;5114500;27;20400;-92
2023/01/04 08:31:32;;;;;;;16.73;5.40;;;11.00;98.50;;;;;;5114641;27;20428;-92
2023/01/04 08:34:01;;;;;;;16.67;4.20;;;11.00;98.50;;;;;;5114940;27;20454;-91
2023/01/04 08:36:29;;;;;;;20.58;6.05;;;11.00;98.50;;;;;;5114032;27;20433;-92
2023/01/04 08:39:05;;;;;;;14.82;4.10;;;11.00;98.50;;;;;;5114837;27;20397;-92
2023/01/04 08:41:49;;;;;;;17.98;5.40;;;11.10;98.50;;;;;;5114260;27;20492;-91
2023/01/04 08:44:21;;;;;;;18.50;6.07;;;11.20;98.50;;;;;;5114720;27;20397;-93
2023/01/04 08:46:48;;;;;;;19.27;5.37;;;11.10;98.50;;;;;;5114637;27;20425;-92
2023/01/04 08:49:14;;;;;;;16.80;4.50;;;11.40;98.50;;;;;;5113679;27;20405;-93
2023/01/04 08:51:41;;;;;;;18.17;4.55;;;11.00;98.40;;;;;;5114789;27;20405;-91
2023/01/04 08:54:06;;;;;;;18.45;4.72;;;11.30;98.50;;;;;;5113914;27;20804;-92
2023/01/04 08:56:32;;;;;;;20.48;4.68;;;11.00;98.40;;;;;;5132155;27;20489;-90
2023/01/04 08:58:58;;;;;;;15.88;3.50;;;11.10;98.40;;;;;;5113971;27;20405;-92
2023/01/04 09:01:24;;;;;;;17.23;3.83;;;11.10;98.40;;;;;;5114729;27;20892;-91
2023/01/04 09:03:49;;;;;;;16.80;3.87;;;11.10;98.40;;;;;;5114056;27;20522;-91
2023/01/04 09:06:15;;;;;;;18.20;4.10;;;11.40;98.40;;;;;;5113848;27;20421;-91
2023/01/04 09:08:43;;;;;;;17.98;4.90;;;10.80;98.20;;;;;;5114490;27;20476;-92
2023/01/04 09:11:14;;;;;;;17.65;4.50;;;11.10;98.30;;;;;;5113350;27;20408;-90
2023/01/04 09:13:40;;;;;;;18.90;4.13;;;11.00;98.30;;;;;;5114393;27;20404;-92
2023/01/04 09:16:09;;;;;;;18.77;4.25;;;11.00;98.30;;;;;;5113437;27;20485;-91
2023/01/04 09:18:35;;;;;;;15.15;4.22;;;11.00;98.30;;;;;;5114121;27;20782;-92
2023/01/04 09:21:09;;;;;;;18.38;3.65;;;11.10;98.30;;;;;;5114250;27;20404;-93
2023/01/04 09:23:36;;;;;;;16.83;4.05;;;11.10;98.30;;;;;;5113667;27;20823;-91
2023/01/04 09:26:06;;;;;;;17.27;4.38;;;11.40;98.30;;;;;;5114011;27;20508;-89
2023/01/04 09:28:32;;;;;;;22.42;4.25;;;11.10;98.20;;;;;;5129968;27;20474;-92
2023/01/04 09:31:03;;;;;;;23.57;5.20;;;11.10;98.20;;;;;;5114512;27;20421;-90
2023/01/04 09:33:28;;;;;;;21.38;4.15;;;11.30;98.20;;;;;;5097007;27;20406;-92
2023/01/04 09:35:54;;;;;;;20.90;4.20;;;10.80;98.10;;;;;;5093884;27;20869;-91
2023/01/04 09:38:19;;;;;;;23.93;4.80;;;11.20;98.20;;;;;;5097550;27;20407;-90
2023/01/04 09:41:13;;;;;;;19.95;4.22;;;11.10;98.10;;;;;;5109552;27;20987;-92
2023/01/04 09:43:44;;;;;;;21.30;4.57;;;11.20;98.10;;;;;;5103370;27;20433;-91
2023/01/04 09:46:17;;;;;;;26.33;4.43;;;11.20;98.10;;;;;;5100275;27;20410;-90
2023/01/04 09:48:45;;;;;;;22.63;4.50;;;11.20;98.10;;;;;;5093634;27;20417;-91
2023/01/04 09:51:16;;;;;;;24.58;4.57;;;11.30;98.10;;;;;;5127298;27;20438;-93
2023/01/04 09:54:01;;;;;;;21.50;4.10;;;11.20;98.00;;;;;;5122328;27;20406;-91
2023/01/04 09:56:32;;;;;;;25.20;4.38;;;11.30;98.10;;;;;;5117438;27;20395;-92
2023/01/04 09:59:04;;;;;;;23.00;4.05;;;11.30;98.00;;;;;;5114622;27;20401;-90
2023/01/04 10:01:45;;;;;;;21.33;3.65;;;11.30;97.90;;;;;;5113422;27;20404;-91
2023/01/04 10:04:26;;;;;;;24.73;4.32;;;11.30;97.90;;;;;;5110495;27;20849;-92
2023/01/04 10:06:52;;;;;;;23.42;3.75;;;11.40;97.90;;;;;;5109242;27;20438;-91
2023/01/04 10:09:18;;;;;;;30.77;4.93;;;11.40;97.80;;;;;;5111254;27;20418;-91
2023/01/04 10:11:53;;;;;;;25.87;4.70;;;11.50;97.90;;;;;;5091641;27;20531;-90
2023/01/04 10:14:34;;;;;;;29.60;4.53;;;11.50;97.80;;;;;;5093056;27;20399;-89
2023/01/04 10:17:21;;;;;;;26.63;4.22;;;11.50;97.70;;;;;;5091997;28;20490;-91
2023/01/04 10:20:17;;;;;;;29.63;4.47;;;11.50;97.60;;;;;;5092241;28;20394;-90
2023/01/04 10:23:16;;;;;;;26.55;4.28;;;11.60;97.50;;;;;;5093013;28;20415;-92
2023/01/04 10:25:52;;;;;;;35.37;5.13;;;11.60;97.50;;;;;;5091727;28;20429;-90
2023/01/04 10:28:36;;;;;;;29.20;4.93;;;11.60;97.40;;;;;;5109173;28;20410;-92
2023/01/04 10:31:23;;;;;;;33.97;5.00;;;11.60;97.40;;;;;;5092523;28;20406;-88
2023/01/04 10:34:23;;;;;;;32.03;4.72;;;11.70;97.40;;;;;;5109005;28;20406;-91
2023/01/04 10:36:52;;;;;;;30.90;5.20;;;11.70;97.30;;;;;;5092592;28;20406;-88
2023/01/04 10:39:22;;;;;;;34.25;5.53;;;11.70;97.20;;;;;;5108722;28;20394;-89
2023/01/04 10:41:53;;;;;;;33.75;5.53;;;11.70;97.30;;;;;;5091814;28;20421;-89
2023/01/04 10:44:46;;;;;;;35.53;5.60;;;11.80;97.20;;;;;;5088300;28;20412;-91
2023/01/04 10:47:31;;;;;;;36.15;5.32;;;11.80;97.20;;;;;;5107451;28;20412;-90
2023/01/04 10:50:04;;;;;;;33.50;5.35;;;11.80;97.10;;;;;;5093144;28;20408;-91
2023/01/04 10:52:46;;;;;;;35.70;5.38;;;11.90;97.40;;;;;;5093088;28;20456;-92
2023/01/04 10:55:44;;;;;;;35.72;6.07;;;11.90;97.20;;;;;;5091836;28;20411;-90
2023/01/04 10:58:27;;;;;;;33.00;5.90;;;11.90;96.80;;;;;;5091936;28;20923;-92
2023/01/04 11:01:02;;;;;;;36.78;5.28;;;12.00;97.10;;;;;;5109085;27;20420;-90
2023/01/04 11:03:39;;;;;;;34.80;5.53;;;12.00;96.60;;;;;;5092203;28;20764;-92
2023/01/04 11:06:19;;;;;;;35.60;5.63;;;11.90;96.60;;;;;;5092013;28;20435;-92
2023/01/04 11:09:15;;;;;;;30.27;4.77;;;12.00;96.40;;;;;;5091699;28;20771;-92
2023/01/04 11:11:46;;;;;;;29.10;4.40;;;12.00;96.50;;;;;;5092159;28;20440;-92
2023/01/04 11:14:13;;;;;;;26.00;4.03;;;12.00;96.50;;;;;;5092499;28;20408;-94
2023/01/04 11:16:41;;;;;;;24.63;3.60;;;12.20;96.60;;;;;;5091611;28;20412;-91
2023/01/04 11:19:09;;;;;;;24.85;3.60;;;12.00;96.60;;;;;;5092351;28;20396;-91
2023/01/04 11:22:04;;;;;;;27.07;4.37;;;12.10;96.50;;;;;;5091702;28;20388;-91
2023/01/04 11:24:31;;;;;;;32.83;4.97;;;12.00;96.40;;;;;;5109354;28;20475;-89
2023/01/04 11:27:03;;;;;;;32.65;5.30;;;12.00;96.60;;;;;;5092393;28;20782;-92
2023/01/04 11:29:39;;;;;;;41.67;7.32;;;12.10;96.70;;;;;;5091523;28;20439;-93
2023/01/04 11:32:22;;;;;;;45.40;7.13;;;12.10;96.70;;;;;;5109082;28;20499;-91
2023/01/04 11:34:51;;;;;;;39.35;6.63;;;12.10;96.80;;;;;;5090991;28;20412;-91
2023/01/04 11:37:26;;;;;;;39.78;6.30;;;12.10;96.70;;;;;;5109088;28;20499;-91
2023/01/04 11:40:11;;;;;;;35.53;5.27;;;12.10;96.60;;;;;;5109087;28;20405;-90
2023/01/04 11:42:36;;;;;;;33.85;5.13;;;12.00;96.60;;;;;;5090867;28;20404;-92
2023/01/04 11:45:02;;;;;;;36.38;5.43;;;12.00;96.60;;;;;;5091631;28;20503;-92
2023/01/04 11:47:28;;;;;;;31.70;5.10;;;12.00;96.50;;;;;;5090839;28;20446;-93
2023/01/04 11:49:54;;;;;;;28.20;4.60;;;12.10;96.50;;;;;;5108993;28;21149;-90
2023/01/04 11:52:26;;;;;;;29.70;4.67;;;12.10;96.30;;;;;;5091554;28;20404;-90
2023/01/04 11:54:51;;;;;;;24.35;4.18;;;12.30;96.30;;;;;;5092013;28;20409;-91
2023/01/04 11:57:19;;;;;;;25.77;3.72;;;12.20;96.10;;;;;;5107409;28;20405;-91
2023/01/04 12:00:05;;;;;;;25.10;3.78;;;12.20;96.00;;;;;;5090594;28;20577;-92
2023/01/04 12:02:30;;;;;;;20.10;3.53;;;12.30;95.90;;;;;;5091706;28;20397;-92
2023/01/04 12:04:56;;;;;;;25.15;3.90;;;12.30;95.80;;;;;;5090566;28;20412;-90
2023/01/04 12:07:31;;;;;;;24.43;3.40;;;12.20;95.70;;;;;;5091933;28;20421;-93
2023/01/04 12:10:10;;;;;;;20.20;2.88;;;12.30;95.80;;;;;;5091498;28;20861;-91
2023/01/04 12:12:36;;;;;;;21.20;3.37;;;12.30;95.60;;;;;;5108254;28;20397;-90
2023/01/04 12:15:13;;;;;;;20.90;2.97;;;12.30;95.50;;;;;;5100557;28;20404;-91
2023/01/04 12:17:53;;;;;;;19.98;3.17;;;12.30;95.40;;;;;;5090482;28;20413;-92
2023/01/04 12:20:28;;;;;;;17.55;2.95;;;12.40;95.30;;;;;;5107546;27;20407;-92
2023/01/04 12:22:54;;;;;;;17.52;2.60;;;12.30;95.50;;;;;;5111423;27;20477;-89
2023/01/04 12:25:22;;;;;;;15.17;2.20;;;12.40;95.40;;;;;;5110901;27;20587;-90
2023/01/04 12:27:50;;;;;;;17.35;2.35;;;12.40;95.20;;;;;;5111311;27;20411;-91
2023/01/04 12:30:37;;;;;;;15.63;2.55;;;12.40;95.30;;;;;;5110202;27;20402;-91
2023/01/04 12:33:29;;;;;;;16.13;2.25;;;12.30;95.20;;;;;;5111337;27;20428;-92
2023/01/04 12:36:01;;;;;;;15.77;2.43;;;12.40;95.20;;;;;;5082863;27;20417;-89
2023/01/04 12:38:56;;;;;;;16.37;2.60;;;12.40;95.20;;;;;;5110667;27;20482;-91
2023/01/04 12:42:02;;;;;;;13.02;2.13;;;12.30;95.10;;;;;;5128335;27;20399;-90
2023/01/04 12:44:45;;;;;;;13.10;1.80;;;12.30;95.20;;;;;;5127582;27;20480;-91
2023/01/04 12:50:17;;;;;;;12.40;1.98;;;12.30;95.10;;;;;;5128480;27;20399;-92
2023/01/04 12:52:47;;;;;;;14.60;1.93;;;12.30;95.00;;;;;;5110449;27;20403;-91
2023/01/04 12:55:52;;;;;;;14.98;1.92;;;12.40;95.10;;;;;;5111205;27;21016;-91
2023/01/04 12:58:26;;;;;;;13.68;2.40;;;12.20;94.90;;;;;;5111002;27;20489;-91
2023/01/04 13:00:52;;;;;;;17.87;2.07;;;12.20;95.00;;;;;;5110369;27;20465;-90
2023/01/04 13:03:18;;;;;;;17.67;2.47;;;12.20;94.90;;;;;;5128386;27;20407;-91
2023/01/04 13:06:02;;;;;;;17.35;2.65;;;12.20;94.90;;;;;;5127099;27;20419;-93
2023/01/04 13:08:34;;;;;;;15.50;2.45;;;12.20;94.90;;;;;;5110233;27;20414;-90
2023/01/04 13:11:04;;;;;;;16.00;2.20;;;12.20;94.90;;;;;;5111105;27;20441;-91
2023/01/04 13:14:20;;;;;;;16.92;2.72;;;12.20;94.90;;;;;;5109712;27;20394;-92
2023/01/04 13:17:00;;;;;;;19.92;2.78;;;12.20;94.90;;;;;;5049964;28;20404;-92
2023/01/04 13:19:28;;;;;;;19.95;2.78;;;12.20;94.80;;;;;;5082278;28;20477;-90
2023/01/04 13:21:54;;;;;;;18.70;2.90;;;12.20;94.70;;;;;;5088493;28;20412;-90
2023/01/04 13:24:22;;;;;;;17.88;2.95;;;12.00;94.60;;;;;;5089501;28;20404;-90
2023/01/04 13:26:49;;;;;;;18.70;2.95;;;12.30;94.80;;;;;;5087767;28;20481;-93
2023/01/04 13:29:24;;;;;;;21.52;2.97;;;12.20;94.50;;;;;;5089362;28;20396;-91
2023/01/04 13:31:59;;;;;;;18.77;3.10;;;12.10;94.40;;;;;;5088122;28;20419;-92
2023/01/04 13:34:43;;;;;;;19.65;3.47;;;12.20;94.30;;;;;;5089471;28;20405;-90
2023/01/04 13:37:16;;;;;;;20.58;3.55;;;12.20;94.20;;;;;;5106597;28;20952;-90
2023/01/04 13:39:50;;;;;;;19.58;2.65;;;12.10;94.10;;;;;;5106073;28;20400;-92
2023/01/04 13:42:25;;;;;;;19.27;2.83;;;12.10;94.00;;;;;;5106628;28;20459;-89
2023/01/04 13:45:06;;;;;;;22.08;3.35;;;12.10;93.90;;;;;;5089099;28;20444;-90
2023/01/04 13:47:37;;;;;;;21.70;3.33;;;12.10;93.80;;;;;;5089132;28;20429;-92